Terminal Aerodrome Forecast
Issued by NWS

Home | Current Version | Previous Version | Graphics & Text | Print | Product List | Glossary On
Versions: 1 2 3 4 5 6 7 8 9 10 11 12 13 14 15 16 17 18 19 20 21 22 23
000
FTUS43 KTOP 231104 AAA
TAFMHK
TAF AMD
KMHK 231104Z 2311/2406 17008KT P6SM SCT025 BKN100 WS010/19035KT
     FM231300 17011KT P6SM SCT025
      TEMPO 2314/2317 18012KT P6SM -TSRA BKN023CB
     FM240500 17007KT P6SM VCTS BKN025CB=

USA.gov is the U.S. government's official web portal to all federal, state and local government web resources and services.